Ana Sayfa
METAR-TAF:

METAR-TAF

Havaalanları :

Kansai Uluslararası Havalimanı

Kansai, Japonya

Enlem: 34-25N, Boylam: 135-15E, yükseklik: 5 m

Güncel hava durumu gözlemi

Rapor saat 08:30 UTC de 49 dakika önce yapıldı.
Rüzgar batıdan 19 kt
Sıcaklık 11°C
Nem 58%
Basınç 1010 hPa
Görüş mesafesi 10 km veya daha fazla
2000 ft yükseklikte az bulutlu
parçalı çok bulutlu

METAR: RJBB 010830Z 27019KT 9999 FEW020 BKN/// 11/03 Q1010 NOSIG

Saat: 18:19 (09:19 UTC)

Tahmin

Rapor saat 05:05 UTC de 4 saat ve 14 dakika önce yapıldı.
Ayın 01'si saat 06 UTC'den ayın 02'si saat 12 UTC'ye kadar geçerli Tahmin
Rüzgar batı/kuzeybatıdan 18 kt
Görüş mesafesi 10 km veya daha fazla
2500 ft yükseklikte az bulutlu
4500 ft yükseklikte parçalı çok bulutlu

TAF: RJBB 010505Z 0106/0212 30018KT 9999 FEW025 BKN045

4.000'den fazla havaalanı için hava durumu gözlemleri ve tahminleri (METAR ve TAF raporları).

Kullanılabilir istasyonlar harita üzerinde sarı ve kırmızı noktalarla gösterilir.

İstasyonun adını görmek için fareyi noktanın üzerinde gezdirin.

Sonrasında hava gözlem ve tahminlerini görmek için tıklayın.

Haritayı değiştirmek için: yaklaştırmak için siyah artı işaretli yeşil düğmeye ve uzaklaştırmak için de eksi işaretli düğmeye hızla tıklayın; bitişik haritalar için yeşil okları kullanın.


METAR-TAF: